Time;durP1;ratioP1;P1;durP2;ratioP2;P2;SDS_P1;SDS_P2;PMS_P1;PMS_P2;Temp;Humidity;BMP_temperature;BMP_pressure;BME280_temperature;BME280_humidity;BME280_pressure;Samples;Min_cycle;Max_cycle;Signal;HPM_P1;HPM_P2
2023/09/01 00:01:46;;;;;;;5.05;3.65;;;16.40;99.90;;;;;;5051110;28;20172;-72
2023/09/01 00:04:12;;;;;;;7.22;3.80;;;16.20;99.90;;;;;;5050816;28;20636;-71
2023/09/01 00:06:37;;;;;;;5.50;3.80;;;16.30;99.90;;;;;;5051296;28;20643;-72
2023/09/01 00:09:04;;;;;;;10.35;4.10;;;16.30;99.90;;;;;;5050933;28;20180;-71
2023/09/01 00:11:29;;;;;;;5.88;3.88;;;16.10;99.90;;;;;;5051160;28;20189;-73
2023/09/01 00:13:55;;;;;;;6.30;4.13;;;16.50;99.90;;;;;;5049715;28;20219;-73
2023/09/01 00:16:21;;;;;;;8.18;4.13;;;16.40;99.90;;;;;;5050945;28;20179;-73
2023/09/01 00:18:46;;;;;;;7.13;3.78;;;16.50;99.90;;;;;;5051074;28;20207;-73
2023/09/01 00:21:12;;;;;;;5.70;3.97;;;16.40;99.90;;;;;;5051062;28;20647;-73
2023/09/01 00:23:37;;;;;;;8.13;4.13;;;16.40;99.90;;;;;;5050938;28;20698;-72
2023/09/01 00:26:03;;;;;;;7.40;4.20;;;16.50;99.90;;;;;;5050748;28;20197;-74
2023/09/01 00:28:29;;;;;;;10.02;4.13;;;16.50;99.90;;;;;;5050714;28;20169;-73
2023/09/01 00:30:56;;;;;;;8.77;3.95;;;16.50;99.90;;;;;;5050813;28;20669;-72
2023/09/01 00:33:29;;;;;;;7.90;4.43;;;16.50;99.90;;;;;;5050837;28;20181;-72
2023/09/01 00:35:56;;;;;;;7.15;3.92;;;16.50;99.90;;;;;;5050549;28;20245;-72
2023/09/01 00:38:24;;;;;;;7.20;4.35;;;16.50;99.90;;;;;;5050865;28;20623;-72
2023/09/01 00:40:50;;;;;;;10.10;4.28;;;16.50;99.90;;;;;;5050550;28;20300;-73
2023/09/01 00:43:16;;;;;;;7.75;4.78;;;16.50;99.90;;;;;;5050600;28;20270;-72
2023/09/01 00:45:42;;;;;;;7.63;4.32;;;16.50;99.90;;;;;;5050310;28;20185;-73
2023/09/01 00:48:09;;;;;;;8.98;4.50;;;16.50;99.90;;;;;;5049295;28;20628;-72
2023/09/01 00:50:35;;;;;;;10.98;4.45;;;16.60;99.90;;;;;;5050745;28;20660;-72
2023/09/01 00:53:02;;;;;;;7.38;3.63;;;16.40;99.90;;;;;;5050749;28;20173;-72
2023/09/01 00:55:29;;;;;;;6.25;4.05;;;16.50;99.90;;;;;;5047447;28;20162;-72
2023/09/01 00:57:55;;;;;;;6.72;4.38;;;16.40;99.90;;;;;;5043274;28;20239;-72
2023/09/01 01:00:20;;;;;;;7.03;3.95;;;16.50;99.90;;;;;;5032380;28;20580;-72
2023/09/01 01:02:47;;;;;;;6.57;4.07;;;16.30;99.90;;;;;;5037993;28;20195;-72
2023/09/01 01:05:15;;;;;;;7.45;4.18;;;16.40;99.90;;;;;;5050485;28;20209;-72
2023/09/01 01:08:00;;;;;;;6.57;3.78;;;16.40;99.90;;;;;;5050296;28;20264;-72
2023/09/01 01:10:44;;;;;;;8.00;4.30;;;16.20;99.90;;;;;;5050485;28;20165;-72
2023/09/01 01:13:13;;;;;;;7.55;4.20;;;16.40;99.90;;;;;;5049105;28;20256;-71
2023/09/01 01:15:40;;;;;;;7.50;4.00;;;16.40;99.90;;;;;;5046651;28;20166;-71
2023/09/01 01:18:10;;;;;;;6.47;3.75;;;16.40;99.90;;;;;;5034120;28;20545;-71
2023/09/01 01:20:39;;;;;;;7.63;3.83;;;16.30;99.90;;;;;;5068849;28;20165;-71
2023/09/01 01:23:10;;;;;;;5.75;3.80;;;16.30;99.90;;;;;;5054299;28;20176;-71
2023/09/01 01:25:37;;;;;;;7.30;3.85;;;16.30;99.90;;;;;;5052930;28;20192;-71
2023/09/01 01:28:07;;;;;;;8.07;3.35;;;16.30;99.90;;;;;;5054003;28;20173;-71
2023/09/01 01:30:33;;;;;;;5.15;2.60;;;16.20;99.90;;;;;;5054040;28;20180;-71
2023/09/01 01:32:59;;;;;;;4.45;2.08;;;16.10;99.90;;;;;;5054131;28;20173;-71
2023/09/01 01:35:32;;;;;;;3.90;1.88;;;16.00;99.90;;;;;;5053730;28;20828;-71
2023/09/01 01:38:21;;;;;;;4.05;1.77;;;16.00;99.90;;;;;;5053591;28;20161;-72
2023/09/01 01:40:49;;;;;;;5.50;1.70;;;15.90;99.90;;;;;;5052369;28;20217;-71
2023/09/01 01:43:21;;;;;;;4.18;1.73;;;15.80;99.90;;;;;;5052669;28;20304;-72
2023/09/01 01:45:47;;;;;;;5.45;1.52;;;15.80;99.90;;;;;;5053515;28;20180;-73
2023/09/01 01:48:13;;;;;;;3.78;1.80;;;16.20;99.90;;;;;;5053672;28;20717;-72
2023/09/01 01:50:40;;;;;;;3.05;1.70;;;15.90;99.90;;;;;;5053707;28;20209;-72
2023/09/01 01:53:06;;;;;;;4.32;1.70;;;15.80;99.90;;;;;;5053870;28;20314;-72
2023/09/01 01:55:33;;;;;;;4.40;1.77;;;13.70;99.90;;;;;;5053519;28;20647;-72
2023/09/01 01:57:58;;;;;;;6.05;1.95;;;16.00;99.90;;;;;;5053503;28;20220;-70
2023/09/01 02:00:26;;;;;;;6.25;2.22;;;15.80;99.90;;;;;;5053524;28;20173;-71
2023/09/01 02:02:52;;;;;;;4.10;2.38;;;15.80;99.90;;;;;;5053734;28;20252;-71
2023/09/01 02:05:18;;;;;;;5.28;2.17;;;15.90;99.90;;;;;;5053293;28;20300;-71
2023/09/01 02:07:44;;;;;;;7.30;2.42;;;15.90;99.90;;;;;;5053474;28;20161;-71
2023/09/01 02:10:10;;;;;;;3.15;2.05;;;16.30;99.90;;;;;;5053492;28;20181;-70
2023/09/01 02:12:35;;;;;;;5.82;2.83;;;16.00;99.90;;;;;;5053380;28;20172;-71
2023/09/01 02:15:01;;;;;;;7.07;2.13;;;16.00;99.90;;;;;;5052039;28;20179;-72
2023/09/01 02:17:27;;;;;;;8.65;2.50;;;15.90;99.90;;;;;;5034474;28;20675;-72
2023/09/01 02:19:53;;;;;;;4.43;2.30;;;;;;;;;;5033164;28;20252;-72
2023/09/01 02:22:19;;;;;;;4.68;2.40;;;16.10;99.90;;;;;;5033161;28;20376;-70
2023/09/01 02:24:44;;;;;;;4.88;2.58;;;16.20;99.90;;;;;;5031926;28;20205;-70
2023/09/01 02:27:10;;;;;;;3.40;1.88;;;;;;;;;;5033023;28;20177;-72
2023/09/01 02:29:36;;;;;;;6.70;2.20;;;16.00;99.90;;;;;;5032948;28;20201;-71
2023/09/01 02:32:02;;;;;;;2.95;2.05;;;15.80;99.90;;;;;;5032915;28;20645;-71
2023/09/01 02:34:28;;;;;;;7.75;2.30;;;;;;;;;;5032928;28;20174;-71
2023/09/01 02:36:54;;;;;;;10.05;2.00;;;16.10;99.90;;;;;;5032955;28;20170;-71
2023/09/01 02:39:19;;;;;;;4.68;1.70;;;16.00;99.90;;;;;;5031647;28;20182;-71
2023/09/01 02:41:45;;;;;;;5.20;2.00;;;16.00;99.90;;;;;;5032569;28;20218;-71
2023/09/01 02:44:10;;;;;;;4.25;2.05;;;15.90;99.90;;;;;;5032521;28;20700;-71
2023/09/01 02:46:36;;;;;;;6.25;2.13;;;;;;;;;;5032524;28;20177;-72
2023/09/01 02:49:03;;;;;;;5.25;2.35;;;15.90;99.90;;;;;;5032948;28;20614;-72
2023/09/01 02:51:29;;;;;;;4.50;2.33;;;16.00;99.90;;;;;;5032445;28;20629;-72
2023/09/01 02:53:55;;;;;;;5.40;2.33;;;16.10;99.90;;;;;;5032415;28;20187;-73
2023/09/01 02:56:20;;;;;;;4.00;2.15;;;16.00;99.90;;;;;;5045253;28;20181;-71
2023/09/01 02:58:46;;;;;;;6.38;1.95;;;15.90;99.90;;;;;;5052160;28;20192;-72
2023/09/01 03:01:12;;;;;;;5.45;2.20;;;15.90;99.90;;;;;;5047959;28;20532;-72
2023/09/01 03:03:40;;;;;;;4.93;2.20;;;15.90;99.90;;;;;;5052059;28;20296;-72
2023/09/01 03:06:08;;;;;;;3.65;2.15;;;16.50;99.90;;;;;;5035922;28;20181;-73
2023/09/01 03:08:34;;;;;;;3.72;2.20;;;;;;;;;;5052222;28;20166;-71
2023/09/01 03:11:00;;;;;;;5.40;2.13;;;16.00;99.90;;;;;;5050536;28;20200;-73
2023/09/01 03:13:26;;;;;;;4.45;2.45;;;15.90;99.90;;;;;;5052183;28;20170;-72
2023/09/01 03:15:55;;;;;;;5.85;2.45;;;15.70;99.90;;;;;;5030059;28;20174;-73
2023/09/01 03:18:21;;;;;;;6.32;2.30;;;15.60;99.90;;;;;;5045152;28;20268;-72
2023/09/01 03:20:48;;;;;;;5.32;2.38;;;15.70;99.90;;;;;;5045760;28;20174;-73
2023/09/01 03:23:13;;;;;;;6.72;2.45;;;15.80;99.90;;;;;;5052015;28;20175;-72
2023/09/01 03:25:39;;;;;;;4.13;2.67;;;;;;;;;;5047905;28;20558;-74
2023/09/01 03:28:05;;;;;;;4.82;2.60;;;15.70;99.90;;;;;;5051595;28;20169;-73
2023/09/01 03:30:31;;;;;;;4.90;2.70;;;16.00;99.90;;;;;;5050422;28;20181;-72
2023/09/01 03:32:57;;;;;;;3.63;2.63;;;16.20;99.90;;;;;;5051844;28;20165;-72
2023/09/01 03:35:23;;;;;;;5.32;2.50;;;16.00;99.90;;;;;;5051109;28;20550;-73
2023/09/01 03:37:49;;;;;;;8.82;2.72;;;15.90;99.90;;;;;;5050261;28;20636;-72
2023/09/01 03:40:15;;;;;;;6.07;2.53;;;16.20;99.90;;;;;;5040890;28;20182;-72
2023/09/01 03:42:41;;;;;;;6.32;2.70;;;16.00;99.90;;;;;;5043471;28;20185;-72
2023/09/01 03:45:07;;;;;;;5.47;2.72;;;16.00;99.90;;;;;;5050064;28;20209;-73
2023/09/01 03:47:33;;;;;;;6.55;2.80;;;15.80;99.90;;;;;;5051263;28;20180;-73
2023/09/01 03:49:58;;;;;;;6.90;2.90;;;15.80;99.90;;;;;;5049931;28;20177;-72
2023/09/01 03:52:24;;;;;;;4.20;2.72;;;;;;;;;;5039925;28;20243;-71
2023/09/01 03:54:50;;;;;;;5.75;3.28;;;16.80;99.90;;;;;;5030330;28;20605;-70
2023/09/01 03:57:16;;;;;;;4.95;2.78;;;16.00;99.90;;;;;;5050050;28;20189;-71
2023/09/01 03:59:43;;;;;;;4.05;2.90;;;15.70;99.90;;;;;;5051164;28;20223;-71
2023/09/01 04:02:09;;;;;;;7.35;3.03;;;15.90;99.90;;;;;;5050696;28;20640;-72
2023/09/01 04:04:35;;;;;;;7.70;3.20;;;15.90;99.90;;;;;;5043973;28;20217;-72
2023/09/01 04:07:00;;;;;;;5.10;2.90;;;15.80;99.90;;;;;;5034108;28;20178;-72
2023/09/01 04:09:26;;;;;;;7.28;3.22;;;;;;;;;;5042766;28;20230;-71
2023/09/01 04:11:52;;;;;;;4.65;2.83;;;15.80;99.90;;;;;;5049786;28;20311;-72
2023/09/01 04:14:17;;;;;;;6.72;3.17;;;15.80;99.90;;;;;;5051000;28;20173;-72
2023/09/01 04:16:43;;;;;;;6.45;3.08;;;;;;;;;;5038450;28;20573;-72
2023/09/01 04:19:10;;;;;;;8.60;3.17;;;16.00;99.90;;;;;;5031110;28;20178;-72
2023/09/01 04:21:36;;;;;;;4.82;2.75;;;15.80;99.90;;;;;;5031289;28;20162;-72
2023/09/01 04:24:02;;;;;;;5.10;3.05;;;15.80;99.90;;;;;;5030800;28;20667;-72
2023/09/01 04:26:27;;;;;;;6.07;2.97;;;15.80;99.90;;;;;;5048186;28;20629;-71
2023/09/01 04:28:53;;;;;;;9.35;3.63;;;15.80;99.90;;;;;;5050684;28;20601;-71
2023/09/01 04:31:29;;;;;;;5.40;2.95;;;15.80;99.90;;;;;;5050920;28;20169;-72
2023/09/01 04:33:55;;;;;;;5.78;3.17;;;15.80;99.90;;;;;;5050930;28;20180;-71
2023/09/01 04:36:21;;;;;;;5.90;3.00;;;15.70;99.90;;;;;;5050514;28;20632;-72
2023/09/01 04:38:47;;;;;;;4.70;3.10;;;15.80;99.90;;;;;;5050720;28;20273;-71
2023/09/01 04:41:13;;;;;;;4.82;2.97;;;;;;;;;;5049457;28;20260;-72
2023/09/01 04:43:39;;;;;;;4.65;3.03;;;16.00;99.90;;;;;;5049467;28;20236;-72
2023/09/01 04:46:05;;;;;;;8.95;3.30;;;15.80;99.90;;;;;;5050545;28;20213;-71
2023/09/01 04:48:31;;;;;;;6.05;2.72;;;15.90;99.90;;;;;;5050778;28;20692;-73
2023/09/01 04:51:00;;;;;;;6.72;3.10;;;15.80;99.90;;;;;;5050911;28;20214;-73
2023/09/01 04:53:25;;;;;;;4.97;3.08;;;15.70;99.90;;;;;;5055046;28;20200;-72
2023/09/01 04:55:51;;;;;;;4.10;2.63;;;15.20;99.90;;;;;;5054950;28;20639;-72
2023/09/01 04:58:17;;;;;;;5.53;2.75;;;15.70;99.90;;;;;;5054740;28;20608;-72
2023/09/01 05:00:42;;;;;;;5.03;2.40;;;15.70;99.90;;;;;;5054554;28;20636;-72
2023/09/01 05:03:08;;;;;;;6.70;2.78;;;17.00;99.90;;;;;;5054578;28;20185;-72
2023/09/01 05:05:33;;;;;;;4.95;2.83;;;15.70;99.90;;;;;;5054540;28;20212;-72
2023/09/01 05:07:59;;;;;;;5.38;2.35;;;;;;;;;;5052820;28;20264;-72
2023/09/01 05:10:25;;;;;;;3.83;2.60;;;15.80;99.90;;;;;;5050553;28;20203;-72
2023/09/01 05:12:51;;;;;;;8.00;2.53;;;15.80;99.90;;;;;;5038883;28;20695;-72
2023/09/01 05:15:18;;;;;;;6.20;2.65;;;15.70;99.90;;;;;;5053614;28;20180;-73
2023/09/01 05:17:45;;;;;;;7.72;2.72;;;15.80;99.90;;;;;;5034707;28;20268;-72
2023/09/01 05:20:11;;;;;;;3.50;2.30;;;15.70;99.90;;;;;;5038201;28;20192;-72
2023/09/01 05:22:37;;;;;;;9.02;2.42;;;15.50;99.90;;;;;;5037865;28;20169;-71
2023/09/01 05:25:03;;;;;;;5.38;2.20;;;15.80;99.90;;;;;;5048838;28;20288;-72
2023/09/01 05:27:29;;;;;;;4.00;2.80;;;15.80;99.90;;;;;;5045326;28;20228;-71
2023/09/01 05:29:54;;;;;;;4.07;2.60;;;15.80;99.90;;;;;;5053971;28;20665;-71
2023/09/01 05:32:20;;;;;;;5.85;3.10;;;15.80;99.90;;;;;;5053912;28;20183;-72
2023/09/01 05:34:46;;;;;;;6.13;2.75;;;15.80;99.90;;;;;;5054036;28;20169;-71
2023/09/01 05:37:12;;;;;;;5.80;2.78;;;15.80;99.90;;;;;;5053827;28;20181;-72
2023/09/01 05:39:41;;;;;;;4.47;2.53;;;16.40;99.90;;;;;;5053876;28;20173;-71
2023/09/01 05:42:10;;;;;;;9.30;2.50;;;15.80;99.90;;;;;;5053803;28;20226;-71
2023/09/01 05:44:37;;;;;;;7.50;2.80;;;15.50;99.90;;;;;;5052472;28;20671;-71
2023/09/01 05:47:06;;;;;;;4.90;2.47;;;15.80;99.90;;;;;;5053793;28;20197;-71
2023/09/01 05:49:32;;;;;;;4.90;2.75;;;15.90;99.90;;;;;;5052453;28;20173;-72
2023/09/01 05:51:59;;;;;;;5.15;2.50;;;15.90;99.90;;;;;;5053652;28;20565;-72
2023/09/01 05:54:25;;;;;;;4.60;2.40;;;15.80;99.90;;;;;;5053636;28;20226;-71
2023/09/01 05:56:51;;;;;;;6.70;2.63;;;15.90;99.90;;;;;;5053629;28;20173;-71
2023/09/01 05:59:16;;;;;;;6.47;2.90;;;15.90;99.90;;;;;;5053686;28;20177;-71
2023/09/01 06:01:42;;;;;;;5.38;2.67;;;15.90;99.90;;;;;;5051737;28;20170;-71
2023/09/01 06:04:08;;;;;;;8.15;3.00;;;15.90;99.90;;;;;;5053164;28;20740;-71
2023/09/01 06:06:35;;;;;;;6.35;2.83;;;15.90;99.90;;;;;;5053551;28;20204;-71
2023/09/01 06:09:04;;;;;;;4.07;2.33;;;15.90;99.90;;;;;;5052085;28;20177;-72
2023/09/01 06:11:30;;;;;;;4.07;2.45;;;16.10;99.90;;;;;;5053399;28;20177;-73
2023/09/01 06:13:56;;;;;;;9.13;2.65;;;16.00;99.90;;;;;;5053241;28;20192;-72
2023/09/01 06:16:22;;;;;;;5.65;2.70;;;16.10;99.90;;;;;;5050908;28;20211;-72
2023/09/01 06:18:48;;;;;;;7.20;2.58;;;16.10;99.90;;;;;;5050875;28;20166;-72
2023/09/01 06:21:15;;;;;;;5.70;2.97;;;16.10;99.90;;;;;;5042984;28;20726;-72
2023/09/01 06:23:44;;;;;;;4.72;3.13;;;16.10;99.90;;;;;;5031903;28;20213;-72
2023/09/01 06:26:14;;;;;;;6.50;3.17;;;16.20;99.90;;;;;;5032971;28;20186;-72
2023/09/01 06:28:42;;;;;;;5.13;2.85;;;16.20;99.90;;;;;;5050563;28;20184;-72
2023/09/01 06:31:11;;;;;;;5.32;2.92;;;16.20;99.90;;;;;;5051460;28;20174;-72
2023/09/01 06:33:37;;;;;;;5.13;2.60;;;16.20;99.90;;;;;;5051582;28;20532;-72
2023/09/01 06:36:04;;;;;;;4.75;2.50;;;16.30;99.90;;;;;;5050231;28;20180;-73
2023/09/01 06:38:29;;;;;;;5.45;2.80;;;16.30;99.90;;;;;;5039164;28;20178;-74
2023/09/01 06:40:55;;;;;;;5.13;3.03;;;16.20;99.90;;;;;;5033099;28;20222;-73
2023/09/01 06:43:20;;;;;;;5.40;3.13;;;16.40;99.90;;;;;;5050077;28;20258;-73
2023/09/01 06:45:46;;;;;;;7.85;3.08;;;16.50;99.90;;;;;;5045407;28;20212;-73
2023/09/01 06:48:12;;;;;;;8.65;3.20;;;16.50;99.90;;;;;;5032643;28;20229;-74
2023/09/01 06:50:38;;;;;;;7.78;3.53;;;16.50;99.90;;;;;;5032953;28;20205;-74
2023/09/01 06:53:04;;;;;;;7.22;3.30;;;16.60;99.90;;;;;;5032558;28;20197;-73
2023/09/01 06:55:30;;;;;;;5.65;3.50;;;16.70;99.90;;;;;;5042553;28;20188;-74
2023/09/01 06:57:56;;;;;;;5.68;3.40;;;16.70;99.90;;;;;;5052379;28;20165;-73
2023/09/01 07:00:22;;;;;;;6.15;3.13;;;16.70;99.90;;;;;;5040373;28;20185;-73
2023/09/01 07:02:47;;;;;;;5.22;3.10;;;16.80;99.90;;;;;;5048838;28;20173;-72
2023/09/01 07:05:15;;;;;;;6.93;3.53;;;16.80;99.90;;;;;;5052178;28;20201;-74
2023/09/01 07:07:40;;;;;;;4.88;3.10;;;17.00;99.90;;;;;;5051700;28;20173;-74
2023/09/01 07:10:06;;;;;;;5.97;3.38;;;16.90;99.90;;;;;;5052474;28;20639;-72
2023/09/01 07:12:32;;;;;;;5.45;3.00;;;17.00;99.90;;;;;;5036639;28;20188;-74
2023/09/01 07:14:58;;;;;;;4.57;2.90;;;;;;;;;;5051332;28;20176;-74
2023/09/01 07:17:24;;;;;;;4.68;2.95;;;17.10;99.90;;;;;;5067738;28;20168;-74
2023/09/01 07:19:50;;;;;;;5.32;2.95;;;17.20;99.90;;;;;;5050790;28;20185;-74
2023/09/01 07:22:15;;;;;;;4.60;2.70;;;17.20;99.90;;;;;;5052933;28;20531;-73
2023/09/01 07:24:41;;;;;;;4.70;2.78;;;17.30;99.90;;;;;;5054660;28;20672;-73
2023/09/01 07:27:07;;;;;;;8.88;3.00;;;17.40;99.90;;;;;;5054780;28;20191;-73
2023/09/01 07:29:33;;;;;;;6.38;2.88;;;17.40;99.90;;;;;;5039018;28;20188;-72
2023/09/01 07:32:03;;;;;;;8.25;2.75;;;17.60;99.90;;;;;;5051697;28;20168;-72
2023/09/01 07:34:29;;;;;;;8.13;3.00;;;17.70;99.90;;;;;;5032850;28;20229;-72
2023/09/01 07:36:54;;;;;;;5.28;2.97;;;17.70;99.90;;;;;;5035947;28;20579;-72
2023/09/01 07:39:20;;;;;;;6.22;2.95;;;17.90;99.90;;;;;;5036793;28;20580;-73
2023/09/01 07:41:46;;;;;;;4.53;2.78;;;18.10;99.90;;;;;;5047597;28;20201;-72
2023/09/01 07:44:16;;;;;;;5.47;3.00;;;18.20;99.90;;;;;;5051461;28;20213;-72
2023/09/01 07:46:45;;;;;;;5.43;3.00;;;18.20;99.90;;;;;;5031985;28;20193;-72
2023/09/01 07:49:11;;;;;;;5.47;3.40;;;18.30;99.90;;;;;;5062154;28;20177;-72
2023/09/01 07:51:38;;;;;;;6.25;3.45;;;18.30;99.90;;;;;;5068996;28;20218;-73
2023/09/01 07:54:04;;;;;;;6.28;3.53;;;18.30;99.90;;;;;;5051532;28;20252;-72
2023/09/01 07:56:32;;;;;;;7.85;3.75;;;18.30;99.90;;;;;;5051120;28;20178;-73
2023/09/01 07:58:58;;;;;;;7.75;3.60;;;18.40;99.90;;;;;;5050011;28;20188;-73
2023/09/01 08:01:23;;;;;;;8.38;3.70;;;18.20;99.90;;;;;;5051288;28;20166;-73
2023/09/01 08:03:49;;;;;;;7.47;3.95;;;18.20;99.90;;;;;;5043155;28;20413;-73
2023/09/01 08:06:14;;;;;;;9.15;4.00;;;18.40;99.90;;;;;;5035488;28;20186;-73
2023/09/01 08:08:40;;;;;;;9.90;3.78;;;19.10;99.90;;;;;;5041699;28;20177;-73
2023/09/01 08:11:06;;;;;;;8.15;4.05;;;20.10;99.90;;;;;;5037242;28;20260;-73
2023/09/01 08:13:31;;;;;;;7.35;3.28;;;20.20;99.90;;;;;;5043953;28;20173;-73
2023/09/01 08:15:57;;;;;;;7.25;4.07;;;19.70;99.90;;;;;;5051056;28;20173;-73
2023/09/01 08:18:22;;;;;;;7.63;3.33;;;21.80;99.90;;;;;;5044916;28;20698;-73
2023/09/01 08:20:48;;;;;;;7.43;3.08;;;22.50;99.90;;;;;;5041093;28;20265;-75
2023/09/01 08:23:14;;;;;;;5.88;2.75;;;22.80;99.90;;;;;;5046708;28;20639;-74
2023/09/01 08:25:39;;;;;;;5.53;2.58;;;23.80;99.90;;;;;;5037859;28;20301;-74
2023/09/01 08:28:06;;;;;;;8.05;2.55;;;24.40;99.90;;;;;;5043965;28;20629;-74
2023/09/01 08:30:31;;;;;;;7.65;2.70;;;23.80;99.90;;;;;;5030841;28;20170;-74
2023/09/01 08:32:57;;;;;;;5.00;2.17;;;23.20;99.90;;;;;;5031031;28;20223;-74
2023/09/01 08:35:22;;;;;;;4.10;2.30;;;22.80;99.90;;;;;;5040086;28;20263;-73
2023/09/01 08:37:48;;;;;;;4.30;2.38;;;22.60;99.90;;;;;;5042802;28;20205;-75
2023/09/01 08:40:14;;;;;;;4.90;2.28;;;23.00;99.90;;;;;;5050561;28;20177;-76
2023/09/01 08:42:47;;;;;;;4.65;2.30;;;23.40;99.90;;;;;;5050645;28;20821;-73
2023/09/01 08:45:19;;;;;;;2.85;2.20;;;23.80;99.90;;;;;;5045210;28;20217;-74
2023/09/01 08:47:46;;;;;;;3.60;2.13;;;24.30;99.90;;;;;;5044574;28;20180;-74
2023/09/01 08:50:13;;;;;;;2.72;1.92;;;24.90;99.90;;;;;;5036493;28;20173;-75
2023/09/01 08:52:42;;;;;;;4.80;2.60;;;25.40;99.90;;;;;;5034598;28;20256;-75
2023/09/01 08:55:09;;;;;;;4.15;2.03;;;25.50;99.90;;;;;;5046312;28;20217;-76
2023/09/01 08:57:35;;;;;;;3.33;1.95;;;25.40;99.90;;;;;;5033867;28;20170;-75
2023/09/01 09:00:04;;;;;;;5.68;2.28;;;23.30;99.90;;;;;;5037705;28;20252;-76
2023/09/01 09:02:30;;;;;;;6.30;2.30;;;22.50;99.90;;;;;;5050435;28;20179;-75
2023/09/01 09:04:55;;;;;;;5.38;2.40;;;21.80;99.90;;;;;;5051266;28;20295;-76
2023/09/01 09:07:21;;;;;;;4.05;2.50;;;21.30;99.90;;;;;;5047998;28;20178;-76
2023/09/01 09:09:56;;;;;;;6.35;2.40;;;21.00;99.90;;;;;;5036474;28;20178;-75
2023/09/01 09:12:23;;;;;;;5.68;2.70;;;21.00;99.90;;;;;;5032431;28;20244;-76
2023/09/01 09:14:52;;;;;;;4.57;2.20;;;20.70;99.90;;;;;;5050529;28;20219;-76
2023/09/01 09:17:22;;;;;;;3.95;2.42;;;20.90;99.90;;;;;;5050268;28;20268;-75
2023/09/01 09:19:54;;;;;;;4.40;2.20;;;20.50;99.90;;;;;;5048827;28;20536;-75
2023/09/01 09:22:21;;;;;;;5.00;2.17;;;20.60;99.90;;;;;;5049003;28;20177;-75
2023/09/01 09:24:47;;;;;;;4.55;2.05;;;20.50;99.90;;;;;;5030809;28;20212;-75
2023/09/01 09:27:17;;;;;;;7.50;2.17;;;20.40;99.90;;;;;;5030568;28;20219;-74
2023/09/01 09:29:45;;;;;;;3.92;1.83;;;20.50;99.90;;;;;;5036217;28;20178;-75
2023/09/01 09:32:23;;;;;;;4.85;1.83;;;20.60;99.90;;;;;;5049397;28;20231;-75
2023/09/01 09:35:24;;;;;;;4.75;2.13;;;20.70;99.90;;;;;;5045306;28;20250;-75
2023/09/01 09:37:59;;;;;;;5.90;2.08;;;20.70;99.90;;;;;;5040164;28;20189;-75
2023/09/01 09:40:26;;;;;;;5.90;2.08;;;20.70;99.90;;;;;;5059142;28;20164;-74
2023/09/01 09:42:51;;;;;;;5.30;2.70;;;20.70;99.90;;;;;;5073700;28;20188;-75
2023/09/01 09:45:26;;;;;;;4.05;2.22;;;20.60;99.90;;;;;;5073459;28;20208;-74
2023/09/01 09:47:54;;;;;;;5.57;2.65;;;20.60;99.90;;;;;;5063987;28;20176;-74
2023/09/01 09:50:21;;;;;;;4.35;2.35;;;20.60;99.90;;;;;;5033607;28;20193;-75
2023/09/01 09:52:50;;;;;;;4.75;2.35;;;20.40;99.90;;;;;;5049511;28;20174;-75
2023/09/01 09:55:26;;;;;;;4.30;2.50;;;20.20;99.90;;;;;;5052597;28;20279;-73
2023/09/01 09:58:02;;;;;;;6.65;2.60;;;20.10;99.90;;;;;;5050111;28;20173;-74
2023/09/01 10:00:31;;;;;;;5.70;2.83;;;19.90;99.90;;;;;;5052906;28;20177;-74
2023/09/01 10:03:01;;;;;;;4.75;2.45;;;19.80;99.90;;;;;;5047734;28;20161;-73
2023/09/01 10:05:32;;;;;;;4.57;2.22;;;19.70;99.90;;;;;;5052489;28;20258;-74
2023/09/01 10:08:00;;;;;;;5.10;2.13;;;19.60;99.90;;;;;;5052855;28;20222;-75
2023/09/01 10:10:26;;;;;;;5.60;2.10;;;19.70;99.90;;;;;;5053142;28;20169;-74
2023/09/01 10:12:52;;;;;;;5.30;2.00;;;19.90;99.90;;;;;;5053268;28;20166;-75
2023/09/01 10:15:19;;;;;;;5.18;2.10;;;19.60;99.90;;;;;;5052595;28;20802;-74
2023/09/01 10:17:46;;;;;;;4.32;2.65;;;19.30;99.90;;;;;;5052929;28;20698;-74
2023/09/01 10:20:12;;;;;;;7.18;2.60;;;;;;;;;;5040514;28;20185;-74
2023/09/01 10:22:38;;;;;;;7.63;2.50;;;20.70;99.90;;;;;;5048705;28;20176;-74
2023/09/01 10:25:15;;;;;;;3.88;2.47;;;19.50;99.90;;;;;;5047013;28;20231;-75
2023/09/01 10:28:10;;;;;;;6.45;3.47;;;19.40;99.90;;;;;;5037072;28;20165;-74
2023/09/01 10:30:45;;;;;;;6.72;4.00;;;19.40;99.90;;;;;;5038264;28;20183;-75
2023/09/01 10:33:27;;;;;;;8.60;4.70;;;19.20;99.90;;;;;;5044141;28;20278;-73
2023/09/01 10:35:55;;;;;;;8.55;4.78;;;19.30;99.90;;;;;;5051785;28;20624;-74
2023/09/01 10:38:41;;;;;;;9.75;5.20;;;19.30;99.90;;;;;;5053676;28;20173;-75
2023/09/01 10:41:07;;;;;;;11.43;6.25;;;;;;;;;;5048272;28;20247;-75
2023/09/01 10:43:33;;;;;;;13.23;6.07;;;19.40;99.90;;;;;;5052170;28;20640;-75
2023/09/01 10:46:17;;;;;;;10.70;6.05;;;19.50;99.90;;;;;;5051958;28;20188;-75
2023/09/01 10:48:49;;;;;;;12.98;5.95;;;19.70;99.90;;;;;;5052395;28;20527;-75
2023/09/01 10:51:17;;;;;;;10.18;5.60;;;19.90;99.90;;;;;;5032421;28;20178;-75
2023/09/01 10:53:42;;;;;;;7.38;5.13;;;20.00;99.90;;;;;;5032441;28;20166;-75
2023/09/01 10:56:13;;;;;;;8.73;5.18;;;19.80;99.90;;;;;;5048953;28;20245;-75
2023/09/01 10:58:50;;;;;;;8.68;4.82;;;19.80;99.90;;;;;;5051301;28;20177;-75
2023/09/01 11:01:28;;;;;;;9.40;4.80;;;19.80;99.90;;;;;;5034072;28;20200;-75
2023/09/01 11:03:56;;;;;;;7.68;4.75;;;20.10;99.90;;;;;;5046115;28;20534;-75
2023/09/01 11:06:22;;;;;;;7.95;4.65;;;19.90;99.90;;;;;;5051771;28;20211;-73
2023/09/01 11:09:01;;;;;;;7.90;4.75;;;20.00;99.90;;;;;;5051950;28;20185;-74
2023/09/01 11:11:28;;;;;;;7.53;3.97;;;20.00;99.90;;;;;;5044694;28;20177;-73
2023/09/01 11:14:06;;;;;;;6.88;3.63;;;20.00;99.90;;;;;;5043927;28;20506;-74
2023/09/01 11:16:31;;;;;;;6.07;3.45;;;19.90;99.90;;;;;;5050378;28;20173;-74
2023/09/01 11:19:01;;;;;;;6.03;3.60;;;19.90;1.00;;;;;;5051459;28;20188;-74
2023/09/01 11:21:27;;;;;;;6.22;3.13;;;19.90;1.00;;;;;;5048006;28;20213;-74
2023/09/01 11:23:59;;;;;;;7.18;3.17;;;19.90;36.80;;;;;;5050641;28;20667;-74
2023/09/01 11:26:25;;;;;;;8.90;3.45;;;20.40;72.10;;;;;;5051464;28;20192;-74
2023/09/01 11:28:51;;;;;;;6.22;3.58;;;20.10;19.10;;;;;;5048900;28;20630;-74
2023/09/01 11:31:17;;;;;;;6.22;3.55;;;20.30;1.00;;;;;;5051096;28;20219;-73
2023/09/01 11:33:54;;;;;;;6.40;3.60;;;20.60;1.00;;;;;;5031770;28;20178;-74
2023/09/01 11:36:20;;;;;;;8.10;3.22;;;20.80;1.00;;;;;;5048930;28;20173;-74
2023/09/01 11:38:46;;;;;;;5.43;3.20;;;20.90;99.90;;;;;;5051429;28;20201;-74
2023/09/01 11:41:14;;;;;;;6.10;3.45;;;21.40;1.00;;;;;;5038366;28;20686;-73
2023/09/01 11:43:43;;;;;;;9.63;2.92;;;22.00;1.00;;;;;;5040453;28;20181;-75
2023/09/01 11:46:10;;;;;;;7.90;3.17;;;21.70;1.00;;;;;;5050344;28;20173;-74
2023/09/01 11:48:36;;;;;;;4.35;3.13;;;21.80;1.00;;;;;;5051387;28;20165;-74
2023/09/01 11:51:04;;;;;;;7.22;2.85;;;22.10;1.00;;;;;;5051249;28;20671;-74
2023/09/01 11:53:33;;;;;;;4.55;2.78;;;22.60;1.00;;;;;;5052521;28;20177;-74
2023/09/01 11:56:03;;;;;;;3.78;2.72;;;22.20;23.60;;;;;;5051052;28;20177;-74
2023/09/01 11:58:34;;;;;;;5.75;2.70;;;22.30;1.00;;;;;;5051546;28;20628;-74
2023/09/01 12:01:15;;;;;;;4.63;2.78;;;22.60;99.90;;;;;;5049553;28;20177;-74
2023/09/01 12:03:47;;;;;;;3.63;2.45;;;22.50;1.00;;;;;;5031338;28;20264;-74
2023/09/01 12:06:24;;;;;;;3.53;2.17;;;22.70;1.00;;;;;;5031461;28;20178;-74
2023/09/01 12:08:53;;;;;;;3.13;1.92;;;22.60;99.90;;;;;;5031255;28;20182;-75
2023/09/01 12:11:19;;;;;;;4.43;2.35;;;23.10;99.90;;;;;;5031915;28;20173;-75
2023/09/01 12:13:45;;;;;;;5.05;2.55;;;22.70;1.00;;;;;;5031124;28;20181;-75
2023/09/01 12:16:24;;;;;;;5.85;2.47;;;22.80;1.00;;;;;;5039012;28;20181;-75
2023/09/01 12:18:51;;;;;;;4.18;2.50;;;23.00;1.00;;;;;;5068644;28;20231;-74
2023/09/01 12:21:17;;;;;;;4.03;2.60;;;22.90;99.90;;;;;;5049306;28;20176;-76
2023/09/01 12:23:45;;;;;;;4.20;2.85;;;23.10;1.00;;;;;;5050666;28;20552;-75
2023/09/01 12:26:12;;;;;;;3.90;2.38;;;23.00;99.90;;;;;;5049307;28;20173;-74
2023/09/01 12:28:40;;;;;;;5.68;2.40;;;23.30;1.00;;;;;;5034137;28;20174;-75
2023/09/01 12:31:07;;;;;;;7.28;2.53;;;23.40;1.00;;;;;;5032148;28;20598;-75
2023/09/01 12:33:34;;;;;;;3.60;2.17;;;23.60;99.90;;;;;;5030971;28;20221;-75
2023/09/01 12:36:00;;;;;;;3.28;2.33;;;23.00;1.00;;;;;;5041564;28;20663;-76
2023/09/01 12:38:26;;;;;;;3.35;2.38;;;22.70;1.00;;;;;;5051014;28;20196;-75
2023/09/01 12:40:52;;;;;;;3.22;2.47;;;22.30;1.00;;;;;;5050676;28;20221;-76
2023/09/01 12:43:18;;;;;;;7.53;2.40;;;22.50;1.00;;;;;;5048005;28;20547;-76
2023/09/01 12:45:43;;;;;;;5.25;2.40;;;22.60;1.00;;;;;;5034417;28;20210;-76
2023/09/01 12:48:09;;;;;;;4.05;2.58;;;22.50;1.00;;;;;;5034593;28;20196;-75
2023/09/01 12:50:35;;;;;;;7.63;2.55;;;22.30;1.00;;;;;;5050325;28;20185;-76
2023/09/01 12:53:01;;;;;;;5.10;2.83;;;22.90;1.00;;;;;;5050565;28;20171;-76
2023/09/01 12:55:27;;;;;;;2.92;2.38;;;23.20;1.00;;;;;;5039318;28;20178;-76